createdAt,value
2017-10-21T00:02:05.103Z,73.92
2017-10-21T00:04:31.638Z,74.26
2017-10-21T00:06:58.037Z,74.72
2017-10-21T00:09:24.490Z,75.28
2017-10-21T00:11:50.903Z,75.90
2017-10-21T00:14:18.158Z,75.78
2017-10-21T00:16:44.695Z,75.67
2017-10-21T00:19:11.130Z,74.91
2017-10-21T00:21:37.596Z,75.07
2017-10-21T00:24:04.020Z,74.57
2017-10-21T00:26:30.407Z,74.24
2017-10-21T00:28:56.878Z,74.11
2017-10-21T00:31:23.921Z,74.32
2017-10-21T00:33:50.330Z,74.99
2017-10-21T00:36:16.797Z,75.23
2017-10-21T00:38:43.225Z,75.56
2017-10-21T00:41:09.657Z,75.59
2017-10-21T00:43:36.093Z,75.34
2017-10-21T00:46:02.537Z,75.05
2017-10-21T00:48:29.688Z,74.62
2017-10-21T00:50:56.114Z,73.86
2017-10-21T00:53:22.487Z,73.76
2017-10-21T00:55:48.882Z,73.77
2017-10-21T00:58:15.316Z,74.28
2017-10-21T01:00:41.754Z,74.75
2017-10-21T01:03:08.207Z,74.72
2017-10-21T01:05:35.430Z,74.55
2017-10-21T01:08:01.882Z,74.66
2017-10-21T01:10:28.312Z,74.86
2017-10-21T01:12:54.754Z,74.81
2017-10-21T01:15:21.189Z,74.39
2017-10-21T01:17:47.614Z,74.00
2017-10-21T01:20:14.049Z,74.26
2017-10-21T01:22:41.223Z,74.52
2017-10-21T01:25:07.638Z,74.51
2017-10-21T01:27:34.075Z,74.23
2017-10-21T01:30:00.477Z,73.84
2017-10-21T01:32:26.940Z,73.73
2017-10-21T01:34:53.375Z,73.90
2017-10-21T01:37:19.828Z,73.77
2017-10-21T01:39:46.961Z,73.76
2017-10-21T01:42:13.405Z,74.33
2017-10-21T01:44:39.832Z,74.15
2017-10-21T01:47:06.370Z,74.30
2017-10-21T01:49:32.807Z,74.07
2017-10-21T01:51:59.174Z,73.78
2017-10-21T01:54:25.554Z,73.34
2017-10-21T01:56:52.794Z,73.43
2017-10-21T01:59:19.194Z,74.05
2017-10-21T02:01:45.695Z,74.25
2017-10-21T02:04:12.138Z,73.39
2017-10-21T02:06:38.565Z,72.84
2017-10-21T02:09:05.007Z,72.77
2017-10-21T02:11:31.433Z,73.02
2017-10-21T02:13:58.585Z,73.03
2017-10-21T02:16:25.021Z,73.23
2017-10-21T02:18:51.455Z,73.27
2017-10-21T02:21:17.889Z,73.30
2017-10-21T02:23:44.324Z,73.68
2017-10-21T02:26:10.656Z,73.89
2017-10-21T02:28:37.091Z,73.78
2017-10-21T02:31:04.352Z,73.93
2017-10-21T02:33:30.789Z,74.18
2017-10-21T02:35:57.248Z,74.30
2017-10-21T02:38:23.587Z,74.07
2017-10-21T02:40:50.092Z,73.96
2017-10-21T02:43:16.620Z,73.94
2017-10-21T02:45:43.057Z,74.12
2017-10-21T02:48:10.107Z,74.63
2017-10-21T02:50:36.647Z,74.71
2017-10-21T02:53:03.078Z,74.54
2017-10-21T02:55:29.513Z,74.38
2017-10-21T02:57:55.845Z,74.40
2017-10-21T03:00:22.280Z,74.11
2017-10-21T03:02:48.728Z,74.17
2017-10-21T03:05:15.866Z,74.17
2017-10-21T03:07:42.309Z,73.84
2017-10-21T03:10:08.745Z,73.58
2017-10-21T03:12:35.171Z,73.34
2017-10-21T03:15:01.605Z,73.67
2017-10-21T03:17:28.050Z,73.81
2017-10-21T03:19:54.479Z,73.88
2017-10-21T03:22:21.729Z,73.93
2017-10-21T03:24:48.176Z,73.53
2017-10-21T03:27:14.710Z,72.67
2017-10-21T03:29:41.136Z,72.75
2017-10-21T03:32:07.571Z,72.75
2017-10-21T03:34:34.015Z,72.46
2017-10-21T03:37:00.506Z,72.63
2017-10-21T03:39:27.592Z,72.75
2017-10-21T03:41:54.068Z,72.81
2017-10-21T03:44:20.575Z,73.09
2017-10-21T03:46:46.999Z,73.24
2017-10-21T03:49:13.372Z,73.43
2017-10-21T03:51:39.767Z,73.28
2017-10-21T03:54:06.202Z,73.34
2017-10-21T03:56:33.347Z,73.63
2017-10-21T03:58:59.796Z,73.70
2017-10-21T04:01:26.223Z,73.72
2017-10-21T04:03:52.666Z,73.67
2017-10-21T04:06:19.031Z,73.35
2017-10-21T04:08:45.550Z,73.02
2017-10-21T04:11:11.899Z,72.99
2017-10-21T04:13:39.225Z,73.00
2017-10-21T04:16:05.587Z,73.02
2017-10-21T04:18:32.050Z,72.98
2017-10-21T04:20:58.492Z,72.82
2017-10-21T04:23:24.935Z,73.34
2017-10-21T04:25:51.376Z,73.60
2017-10-21T04:28:17.828Z,73.63
2017-10-21T04:30:44.977Z,73.47
2017-10-21T04:33:11.419Z,73.23
2017-10-21T04:35:37.846Z,73.54
2017-10-21T04:40:49.849Z,73.46
2017-10-21T04:43:24.874Z,73.45
2017-10-21T04:45:52.155Z,73.51
2017-10-21T04:48:18.530Z,73.26
2017-10-21T04:50:44.922Z,73.00
2017-10-21T04:53:11.365Z,73.03
2017-10-21T04:55:44.432Z,72.58
2017-10-21T04:58:13.771Z,71.70
2017-10-21T05:03:13.606Z,71.46
2017-10-21T05:05:41.263Z,71.38
2017-10-21T05:08:14.412Z,71.40
2017-10-21T05:10:45.644Z,71.39
2017-10-21T05:13:22.135Z,71.92
2017-10-21T05:15:52.297Z,72.64
2017-10-21T05:18:18.723Z,72.87
2017-10-21T05:20:45.661Z,72.14
2017-10-21T05:23:12.106Z,71.60
2017-10-21T05:25:38.639Z,71.02
2017-10-21T05:28:05.097Z,69.88
2017-10-21T05:30:31.506Z,69.66
2017-10-21T05:32:57.883Z,69.63
2017-10-21T05:35:24.382Z,69.69
2017-10-21T05:37:50.813Z,69.60
2017-10-21T05:40:17.182Z,69.45
2017-10-21T05:42:43.578Z,68.82
2017-10-21T05:45:10.730Z,68.51
2017-10-21T05:47:37.165Z,68.40
2017-10-21T05:50:03.605Z,68.50
2017-10-21T05:52:30.004Z,68.17
2017-10-21T05:54:56.467Z,67.90
2017-10-21T05:57:22.902Z,67.60
2017-10-21T05:59:49.229Z,67.86
2017-10-21T06:02:16.592Z,67.59
2017-10-21T06:04:43.025Z,67.28
2017-10-21T06:07:09.469Z,66.80
2017-10-21T06:09:35.903Z,66.53
2017-10-21T06:12:02.431Z,66.79
2017-10-21T06:14:29.217Z,66.16
2017-10-21T06:16:55.618Z,65.92
2017-10-21T06:19:22.119Z,65.20
2017-10-21T06:21:48.524Z,64.84
2017-10-21T06:24:14.912Z,64.35
2017-10-21T06:26:41.349Z,64.01
2017-10-21T06:29:08.194Z,63.90
2017-10-21T06:31:34.650Z,63.72
2017-10-21T06:34:01.047Z,63.22
2017-10-21T06:36:27.498Z,63.07
2017-10-21T06:38:53.935Z,62.69
2017-10-21T06:41:20.711Z,62.03
2017-10-21T06:43:47.179Z,61.57
2017-10-21T06:46:13.645Z,60.81
2017-10-21T06:48:40.594Z,60.85
2017-10-21T06:51:07.029Z,60.55
2017-10-21T06:53:33.466Z,60.22
2017-10-21T06:55:59.837Z,59.63
2017-10-21T06:58:26.235Z,59.57
2017-10-21T07:00:52.685Z,59.28
2017-10-21T07:03:19.609Z,59.37
2017-10-21T07:05:46.047Z,58.79
2017-10-21T07:08:12.466Z,58.27
2017-10-21T07:10:38.916Z,58.39
2017-10-21T07:13:05.287Z,58.10
2017-10-21T07:15:32.495Z,57.70
2017-10-21T07:17:58.937Z,56.93
2017-10-21T07:20:25.393Z,56.55
2017-10-21T07:22:51.807Z,56.20
2017-10-21T07:25:18.651Z,55.69
2017-10-21T07:27:45.088Z,55.23
2017-10-21T07:30:11.476Z,54.91
2017-10-21T07:32:37.956Z,54.51
2017-10-21T07:35:04.390Z,54.19
2017-10-21T07:37:30.825Z,54.02
2017-10-21T07:39:57.870Z,53.88
2017-10-21T07:42:24.310Z,53.72
2017-10-21T07:44:50.743Z,53.43
2017-10-21T07:47:17.588Z,52.94
2017-10-21T07:49:44.024Z,53.21
2017-10-21T07:52:10.457Z,53.12
2017-10-21T07:54:37.075Z,52.38
2017-10-21T07:57:03.518Z,52.29
2017-10-21T07:59:29.968Z,52.09
2017-10-21T08:01:56.628Z,51.65
2017-10-21T08:04:23.144Z,51.61
2017-10-21T08:06:49.537Z,51.41
2017-10-21T08:09:15.956Z,50.83
2017-10-21T08:11:42.449Z,50.50
2017-10-21T08:14:08.888Z,50.37
2017-10-21T08:16:35.625Z,49.89
2017-10-21T08:19:02.106Z,49.46
2017-10-21T08:21:28.598Z,48.79
2017-10-21T08:23:55.384Z,48.25
2017-10-21T08:26:21.818Z,48.14
2017-10-21T08:28:48.321Z,47.88
2017-10-21T08:31:15.583Z,47.62
2017-10-21T08:33:42.082Z,46.98
2017-10-21T08:36:08.528Z,46.88
2017-10-21T08:38:35.168Z,46.88
2017-10-21T08:41:01.614Z,46.58
2017-10-21T08:43:28.097Z,46.46
2017-10-21T08:45:54.932Z,46.27
2017-10-21T08:48:21.430Z,46.39
2017-10-21T08:50:47.864Z,46.37
2017-10-21T08:53:14.607Z,45.84
2017-10-21T08:55:41.040Z,45.53
2017-10-21T08:58:07.460Z,44.81
2017-10-21T09:00:34.423Z,44.10
2017-10-21T09:03:00.919Z,44.06
2017-10-21T09:05:27.701Z,44.26
2017-10-21T09:07:54.335Z,43.62
2017-10-21T09:10:20.775Z,43.94
2017-10-21T09:12:47.518Z,43.13
2017-10-21T09:15:14.467Z,43.53
2017-10-21T09:17:40.899Z,42.83
2017-10-21T09:20:07.270Z,42.55
2017-10-21T09:22:33.769Z,43.05
2017-10-21T09:25:00.106Z,42.68
2017-10-21T09:27:26.842Z,42.63
2017-10-21T09:29:53.215Z,42.82
2017-10-21T09:32:19.683Z,42.79
2017-10-21T09:34:46.087Z,42.01
2017-10-21T09:37:12.683Z,41.49
2017-10-21T09:39:39.202Z,41.00
2017-10-21T09:42:05.759Z,40.84
2017-10-21T09:44:32.402Z,40.88
2017-10-21T09:46:58.834Z,40.31
2017-10-21T09:49:25.199Z,40.49
2017-10-21T09:51:52.970Z,40.45
2017-10-21T09:54:19.367Z,40.25
2017-10-21T09:56:45.805Z,40.50
2017-10-21T09:59:12.275Z,40.42
2017-10-21T10:01:38.775Z,40.49
2017-10-21T10:04:05.251Z,39.45
2017-10-21T10:06:31.851Z,39.47
2017-10-21T10:08:58.475Z,39.21
2017-10-21T10:11:25.450Z,38.91
2017-10-21T10:13:52.280Z,38.92
2017-10-21T10:16:18.714Z,39.12
2017-10-21T10:18:45.974Z,38.74
2017-10-21T10:21:12.914Z,38.35
2017-10-21T10:23:39.452Z,38.29
2017-10-21T10:26:05.887Z,38.95
2017-10-21T10:28:32.324Z,38.59
2017-10-21T10:30:59.207Z,37.44
2017-10-21T10:33:25.703Z,37.31
2017-10-21T10:35:52.856Z,37.88
2017-10-21T10:38:19.392Z,37.39
2017-10-21T10:40:46.075Z,36.94
2017-10-21T10:43:12.511Z,36.93
2017-10-21T10:45:39.092Z,37.50
2017-10-21T10:48:05.851Z,35.99
2017-10-21T10:50:32.223Z,35.98
2017-10-21T10:52:58.718Z,35.33
2017-10-21T10:55:25.767Z,34.88
2017-10-21T10:57:52.311Z,34.31
2017-10-21T11:00:18.842Z,34.79
2017-10-21T11:02:45.484Z,34.14
2017-10-21T11:05:11.917Z,33.37
2017-10-21T11:07:38.349Z,33.42
2017-10-21T11:10:04.888Z,33.60
2017-10-21T11:12:31.363Z,32.06
2017-10-21T11:14:57.759Z,31.69
2017-10-21T11:17:24.397Z,31.61
2017-10-21T11:19:51.046Z,31.08
2017-10-21T11:22:17.574Z,30.46
2017-10-21T11:24:44.316Z,29.73
2017-10-21T11:27:10.751Z,29.86
2017-10-21T11:29:37.186Z,29.48
2017-10-21T11:32:03.723Z,29.16
2017-10-21T11:34:30.268Z,28.71
2017-10-21T11:36:56.805Z,27.52
2017-10-21T11:39:23.745Z,27.14
2017-10-21T11:41:50.154Z,27.37
2017-10-21T11:44:16.588Z,27.67
2017-10-21T11:46:43.426Z,27.19
2017-10-21T11:49:09.904Z,26.79
2017-10-21T11:51:36.329Z,26.76
2017-10-21T11:54:03.210Z,25.69
2017-10-21T11:56:29.688Z,26.36
2017-10-21T11:58:56.086Z,25.32
2017-10-21T12:01:22.875Z,25.57
2017-10-21T12:03:49.432Z,25.69
2017-10-21T12:06:15.795Z,25.43
2017-10-21T12:08:42.197Z,25.20
2017-10-21T12:11:08.732Z,25.33
2017-10-21T12:13:35.136Z,25.63
2017-10-21T12:16:01.632Z,25.60
2017-10-21T12:18:28.144Z,25.79
2017-10-21T12:20:54.681Z,25.59
2017-10-21T12:23:21.107Z,25.56
2017-10-21T12:25:47.542Z,25.68
2017-10-21T12:28:13.875Z,25.72
2017-10-21T12:30:40.308Z,25.09
2017-10-21T12:33:06.744Z,24.28
2017-10-21T12:35:33.208Z,24.08
2017-10-21T12:37:59.613Z,23.44
2017-10-21T12:40:26.056Z,23.51
2017-10-21T12:42:52.585Z,23.57
2017-10-21T12:45:19.020Z,23.43
2017-10-21T12:47:45.464Z,23.65
2017-10-21T12:50:11.889Z,23.77
2017-10-21T12:52:38.325Z,23.98
2017-10-21T12:55:04.759Z,23.88
2017-10-21T12:57:31.197Z,22.84
2017-10-21T12:59:57.639Z,23.02
2017-10-21T13:02:24.063Z,22.89
2017-10-21T13:04:50.508Z,23.30
2017-10-21T13:07:16.934Z,22.80
2017-10-21T13:09:43.377Z,22.41
2017-10-21T13:12:10.520Z,22.37
2017-10-21T13:14:36.955Z,22.62
2017-10-21T13:17:03.328Z,22.53
2017-10-21T13:19:29.833Z,23.15
2017-10-21T13:21:56.370Z,23.04
2017-10-21T13:24:22.909Z,23.00
2017-10-21T13:26:49.272Z,22.81
2017-10-21T13:29:16.485Z,22.55
2017-10-21T13:31:42.921Z,23.27
2017-10-21T13:34:09.350Z,22.50
2017-10-21T13:36:35.809Z,22.21
2017-10-21T13:39:02.355Z,22.45
2017-10-21T13:41:28.749Z,22.77
2017-10-21T13:43:55.197Z,22.41
2017-10-21T13:46:22.459Z,22.85
2017-10-21T13:48:49.397Z,22.55
2017-10-21T13:51:15.862Z,22.70
2017-10-21T13:53:42.202Z,22.71
2017-10-21T13:56:08.548Z,22.18
2017-10-21T13:58:35.020Z,22.34
2017-10-21T14:01:01.367Z,21.96
2017-10-21T14:03:27.804Z,22.18
2017-10-21T14:05:54.175Z,22.02
2017-10-21T14:08:20.681Z,22.17
2017-10-21T14:10:47.039Z,22.49
2017-10-21T14:13:13.438Z,22.58
2017-10-21T14:15:39.873Z,22.10
2017-10-21T14:18:06.298Z,22.05
2017-10-21T14:20:32.744Z,22.27
2017-10-21T14:22:59.181Z,22.73
2017-10-21T14:25:25.580Z,22.87
2017-10-21T14:27:51.944Z,22.63
2017-10-21T14:30:18.380Z,22.66
2017-10-21T14:32:44.815Z,23.08
2017-10-21T14:35:11.219Z,23.35
2017-10-21T14:37:37.623Z,23.24
2017-10-21T14:40:04.108Z,23.42
2017-10-21T14:42:30.579Z,23.17
2017-10-21T14:44:57.059Z,23.51
2017-10-21T14:47:23.530Z,23.83
2017-10-21T14:49:50.063Z,24.14
2017-10-21T14:52:16.498Z,24.77
2017-10-21T14:54:42.942Z,25.11
2017-10-21T14:57:09.384Z,25.45
2017-10-21T14:59:35.804Z,25.80
2017-10-21T15:02:02.963Z,26.43
2017-10-21T15:04:29.397Z,27.72
2017-10-21T15:06:55.847Z,28.34
2017-10-21T15:09:22.246Z,29.09
2017-10-21T15:11:48.797Z,30.10
2017-10-21T15:14:15.182Z,31.36
2017-10-21T15:16:41.666Z,32.32
2017-10-21T15:19:08.817Z,32.74
2017-10-21T15:21:35.224Z,35.04
2017-10-21T15:24:01.698Z,35.81
2017-10-21T15:26:28.123Z,36.19
2017-10-21T15:28:54.557Z,36.71
2017-10-21T15:31:20.992Z,37.06
2017-10-21T15:33:47.425Z,36.80
2017-10-21T15:36:14.581Z,37.22
2017-10-21T15:38:41.015Z,37.89
2017-10-21T15:41:07.459Z,37.60
2017-10-21T15:43:33.885Z,38.76
2017-10-21T15:46:00.319Z,38.98
2017-10-21T15:48:26.753Z,40.85
2017-10-21T15:50:53.196Z,41.02
2017-10-21T15:53:20.441Z,41.03
2017-10-21T15:55:46.884Z,41.53
2017-10-21T15:58:13.310Z,41.82
2017-10-21T16:00:39.745Z,42.47
2017-10-21T16:03:06.292Z,42.79
2017-10-21T16:05:32.658Z,43.07
2017-10-21T16:07:59.162Z,43.78
2017-10-21T16:10:26.291Z,44.48
2017-10-21T16:12:52.710Z,44.90
2017-10-21T16:15:19.184Z,45.51
2017-10-21T16:17:45.609Z,45.93
2017-10-21T16:20:12.047Z,46.38
2017-10-21T16:22:38.479Z,46.63
2017-10-21T16:25:04.914Z,47.25
2017-10-21T16:27:32.068Z,47.72
2017-10-21T16:29:58.610Z,45.75
2017-10-21T16:32:25.045Z,46.57
2017-10-21T16:34:51.471Z,47.80
2017-10-21T16:37:17.915Z,46.56
2017-10-21T16:39:44.341Z,46.82
2017-10-21T16:42:10.887Z,47.39
2017-10-21T16:44:38.042Z,47.74
2017-10-21T16:47:04.465Z,48.44
2017-10-21T16:49:31.012Z,49.04
2017-10-21T16:51:57.436Z,50.16
2017-10-21T16:54:23.812Z,50.62
2017-10-21T16:56:50.315Z,50.86
2017-10-21T16:59:16.680Z,51.04
2017-10-21T17:01:43.947Z,51.31
2017-10-21T17:04:10.439Z,51.44
2017-10-21T17:06:36.866Z,50.89
2017-10-21T17:09:03.300Z,50.82
2017-10-21T17:11:29.735Z,50.27
2017-10-21T17:13:56.179Z,50.93
2017-10-21T17:16:22.719Z,51.01
2017-10-21T17:18:49.860Z,51.07
2017-10-21T17:21:16.295Z,50.69
2017-10-21T17:23:42.737Z,51.33
2017-10-21T17:26:09.164Z,50.95
2017-10-21T17:28:35.607Z,51.21
2017-10-21T17:31:02.033Z,51.71
2017-10-21T17:33:28.478Z,51.50
2017-10-21T17:35:55.734Z,51.55
2017-10-21T17:38:22.161Z,51.51
2017-10-21T17:40:48.592Z,52.49
2017-10-21T17:43:15.100Z,52.47
2017-10-21T17:45:41.572Z,51.64
2017-10-21T17:48:08.113Z,52.84
2017-10-21T17:50:34.555Z,51.91
2017-10-21T17:53:01.697Z,52.92
2017-10-21T17:55:28.122Z,53.17
2017-10-21T17:57:54.659Z,52.88
2017-10-21T18:00:21.095Z,53.01
2017-10-21T18:02:47.545Z,53.46
2017-10-21T18:05:14.074Z,53.50
2017-10-21T18:07:40.612Z,53.58
2017-10-21T18:10:07.652Z,53.70
2017-10-21T18:12:34.087Z,54.25
2017-10-21T18:15:00.624Z,54.24
2017-10-21T18:17:27.061Z,54.20
2017-10-21T18:19:53.467Z,54.85
2017-10-21T18:22:19.919Z,54.88
2017-10-21T18:24:46.299Z,55.31
2017-10-21T18:27:13.527Z,55.52
2017-10-21T18:29:39.959Z,56.02
2017-10-21T18:32:06.384Z,56.22
2017-10-21T18:34:32.829Z,56.72
2017-10-21T18:36:59.227Z,57.03
2017-10-21T18:39:25.690Z,57.26
2017-10-21T18:41:52.126Z,57.15
2017-10-21T18:44:19.352Z,57.40
2017-10-21T18:46:45.822Z,57.73
2017-10-21T18:49:12.276Z,57.47
2017-10-21T18:51:38.655Z,57.63
2017-10-21T18:54:05.118Z,57.83
2017-10-21T18:56:31.552Z,58.24
2017-10-21T18:58:59.071Z,58.34
2017-10-21T19:01:25.570Z,58.70
2017-10-21T19:03:52.719Z,58.76
2017-10-21T19:06:19.134Z,58.89
2017-10-21T19:08:45.569Z,58.90
2017-10-21T19:11:12.014Z,59.07
2017-10-21T19:13:38.550Z,59.70
2017-10-21T19:16:04.976Z,59.52
2017-10-21T19:18:31.347Z,59.80
2017-10-21T19:20:57.744Z,59.86
2017-10-21T19:23:24.179Z,59.94
2017-10-21T19:25:50.613Z,59.77
2017-10-21T19:28:17.057Z,60.05
2017-10-21T19:30:43.483Z,59.98
2017-10-21T19:33:09.919Z,60.20
2017-10-21T19:35:37.070Z,60.10
2017-10-21T19:38:03.505Z,60.60
2017-10-21T19:40:29.913Z,60.38
2017-10-21T19:42:56.374Z,60.71
2017-10-21T19:45:22.809Z,60.53
2017-10-21T19:47:49.179Z,60.64
2017-10-21T19:50:15.596Z,60.69
2017-10-21T19:52:42.839Z,60.75
2017-10-21T19:55:09.265Z,60.87
2017-10-21T19:57:35.640Z,61.25
2017-10-21T20:00:02.052Z,61.50
2017-10-21T20:02:28.578Z,61.49
2017-10-21T20:04:55.005Z,61.19
2017-10-21T20:07:21.440Z,60.89
2017-10-21T20:09:48.567Z,60.91
2017-10-21T20:12:15.030Z,61.14
2017-10-21T20:14:41.358Z,61.36
2017-10-21T20:17:07.802Z,61.57
2017-10-21T20:19:34.218Z,61.57
2017-10-21T20:22:00.664Z,61.78
2017-10-21T20:24:27.098Z,61.71
2017-10-21T20:26:54.371Z,61.36
2017-10-21T20:29:20.728Z,61.21
2017-10-21T20:31:47.196Z,61.54
2017-10-21T20:34:13.666Z,61.84
2017-10-21T20:36:40.036Z,62.17
2017-10-21T20:39:06.546Z,62.53
2017-10-21T20:41:32.962Z,62.63
2017-10-21T20:44:00.214Z,62.82
2017-10-21T20:46:26.650Z,63.11
2017-10-21T20:48:53.021Z,63.39
2017-10-21T20:51:19.416Z,63.55
2017-10-21T20:53:45.837Z,63.85
2017-10-21T20:56:12.281Z,63.91
2017-10-21T20:58:38.618Z,63.95
2017-10-21T21:01:05.881Z,63.89
2017-10-21T21:03:32.280Z,63.84
2017-10-21T21:05:58.717Z,63.70
2017-10-21T21:08:25.162Z,63.36
2017-10-21T21:10:51.614Z,63.05
2017-10-21T21:13:18.055Z,63.05
2017-10-21T21:15:44.482Z,63.14
2017-10-21T21:18:11.744Z,63.28
2017-10-21T21:20:38.180Z,63.40
2017-10-21T21:23:04.614Z,63.13
2017-10-21T21:25:31.153Z,63.14
2017-10-21T21:27:57.577Z,63.27
2017-10-21T21:30:24.013Z,63.06
2017-10-21T21:32:50.456Z,62.90
2017-10-21T21:35:17.711Z,62.89
2017-10-21T21:37:44.111Z,62.77
2017-10-21T21:40:10.570Z,62.81
2017-10-21T21:42:37.005Z,62.94
2017-10-21T21:45:03.440Z,62.86
2017-10-21T21:47:29.883Z,63.19
2017-10-21T21:49:56.317Z,63.51
2017-10-21T21:52:23.462Z,63.83
2017-10-21T21:54:49.908Z,64.09
2017-10-21T21:57:16.331Z,64.22
2017-10-21T21:59:42.774Z,64.24
2017-10-21T22:02:09.139Z,64.49
2017-10-21T22:04:35.636Z,64.44
2017-10-21T22:07:02.070Z,64.43
2017-10-21T22:09:29.325Z,64.46
2017-10-21T22:11:55.759Z,64.53
2017-10-21T22:14:22.194Z,64.33
2017-10-21T22:16:48.628Z,64.68
2017-10-21T22:19:15.030Z,65.03
2017-10-21T22:21:41.497Z,65.37
2017-10-21T22:24:07.935Z,66.03
2017-10-21T22:26:35.189Z,66.02
2017-10-21T22:29:01.595Z,65.84
2017-10-21T22:31:28.026Z,65.65
2017-10-21T22:33:54.621Z,65.23
2017-10-21T22:36:21.104Z,65.40
2017-10-21T22:38:47.555Z,65.66
2017-10-21T22:41:14.006Z,66.02
2017-10-21T22:43:41.087Z,66.28
2017-10-21T22:46:07.427Z,66.22
2017-10-21T22:48:33.929Z,66.07
2017-10-21T22:51:00.296Z,65.90
2017-10-21T22:53:26.759Z,65.81
2017-10-21T22:55:53.123Z,65.93
2017-10-21T22:58:19.557Z,66.00
2017-10-21T23:00:46.713Z,66.12
2017-10-21T23:03:13.144Z,66.29
2017-10-21T23:05:39.578Z,66.34
2017-10-21T23:08:06.013Z,66.41
2017-10-21T23:10:32.389Z,66.38
2017-10-21T23:12:58.892Z,66.46
2017-10-21T23:15:25.318Z,66.49
2017-10-21T23:17:52.470Z,67.00
2017-10-21T23:20:18.912Z,67.25
2017-10-21T23:22:45.346Z,67.06
2017-10-21T23:25:11.782Z,67.54
2017-10-21T23:27:38.219Z,67.74
2017-10-21T23:30:04.643Z,68.07
2017-10-21T23:32:31.016Z,67.90
2017-10-21T23:34:58.230Z,67.68
2017-10-21T23:37:24.673Z,67.26
2017-10-21T23:39:51.119Z,67.28
2017-10-21T23:42:17.533Z,67.41
2017-10-21T23:44:43.866Z,67.54
2017-10-21T23:47:10.301Z,67.33
2017-10-21T23:49:36.737Z,67.32
2017-10-21T23:52:03.897Z,67.32
2017-10-21T23:54:30.326Z,67.47
2017-10-21T23:56:56.757Z,67.35
2017-10-21T23:59:23.202Z,67.51
